Time;durP1;ratioP1;P1;durP2;ratioP2;P2;SDS_P1;SDS_P2;PMS_P1;PMS_P2;Temp;Humidity;BMP_temperature;BMP_pressure;BME280_temperature;BME280_humidity;BME280_pressure;Samples;Min_cycle;Max_cycle;Signal;HPM_P1;HPM_P2
2021/10/19 00:00:47;;;;;;;24.33;18.50;;;;;;;11.09;76.85;94357.34;5112285;28;20034;-44
2021/10/19 00:03:12;;;;;;;23.08;18.45;;;;;;;11.14;76.84;94357.25;5112247;28;20035;-46
2021/10/19 00:05:38;;;;;;;26.58;18.02;;;;;;;11.15;77.13;94366.28;5112170;28;20027;-44
2021/10/19 00:08:03;;;;;;;26.15;19.95;;;;;;;11.10;77.32;94362.34;5111672;28;20028;-44
2021/10/19 00:10:29;;;;;;;26.55;19.15;;;;;;;11.02;77.89;94361.47;5111941;28;20034;-44
2021/10/19 00:12:54;;;;;;;26.38;18.70;;;;;;;10.96;77.79;94362.88;5112404;28;20030;-45
2021/10/19 00:15:20;;;;;;;28.17;18.88;;;;;;;10.80;76.62;94337.03;5111810;28;20031;-44
2021/10/19 00:17:46;;;;;;;28.48;19.52;;;;;;;10.82;75.99;94362.09;5112106;28;20030;-45
2021/10/19 00:20:13;;;;;;;26.92;21.10;;;;;;;10.47;77.54;94359.66;5112224;28;20043;-44
2021/10/19 00:22:39;;;;;;;23.92;18.83;;;;;;;10.23;77.21;94355.00;5112344;28;20512;-45
2021/10/19 00:25:05;;;;;;;31.25;20.13;;;;;;;10.13;78.08;94364.19;5111865;28;20070;-44
2021/10/19 00:27:34;;;;;;;28.23;20.75;;;;;;;9.94;78.52;94375.19;5112047;28;20034;-47
2021/10/19 00:30:00;;;;;;;25.17;19.65;;;;;;;9.93;79.36;94368.22;5111294;28;20110;-47
2021/10/19 00:32:26;;;;;;;26.25;20.75;;;;;;;9.97;79.29;94368.66;5110736;28;20036;-46
2021/10/19 00:34:51;;;;;;;25.13;20.10;;;;;;;10.02;79.14;94378.88;5111657;28;20035;-46
2021/10/19 00:37:17;;;;;;;27.45;19.50;;;;;;;9.99;78.58;94368.88;5107746;28;20028;-46
2021/10/19 00:39:42;;;;;;;25.52;18.63;;;;;;;9.96;77.74;94374.69;5111477;28;20470;-46
2021/10/19 00:42:08;;;;;;;21.20;17.05;;;;;;;9.95;77.50;94368.44;5111795;28;20572;-46
2021/10/19 00:44:33;;;;;;;23.73;17.38;;;;;;;10.00;76.68;94373.13;5111708;28;20153;-47
2021/10/19 00:46:58;;;;;;;25.17;17.48;;;;;;;9.95;77.19;94368.44;5111649;28;20129;-45
2021/10/19 00:49:25;;;;;;;22.63;17.85;;;;;;;9.60;77.27;94374.16;5111556;28;20477;-45
2021/10/19 00:51:51;;;;;;;25.83;17.80;;;;;;;9.49;77.80;94375.03;5111303;28;20118;-46
2021/10/19 00:54:18;;;;;;;24.88;18.45;;;;;;;9.45;78.30;94377.34;5111601;28;20062;-46
2021/10/19 00:56:43;;;;;;;29.95;18.05;;;;;;;9.26;78.38;94359.28;5110388;28;20032;-45
2021/10/19 00:59:09;;;;;;;24.48;16.98;;;;;;;9.38;77.49;94379.91;5111132;28;20424;-45
2021/10/19 01:01:35;;;;;;;26.38;19.23;;;;;;;9.11;78.92;94385.25;5110280;28;20115;-46
2021/10/19 01:04:00;;;;;;;27.48;17.75;;;;;;;9.35;77.88;94376.22;5111050;28;20023;-46
2021/10/19 01:06:26;;;;;;;25.13;17.05;;;;;;;9.38;77.07;94372.41;5111220;28;20023;-43
2021/10/19 01:08:51;;;;;;;25.13;17.17;;;;;;;9.34;77.43;94376.72;5110050;28;20028;-43
2021/10/19 01:11:17;;;;;;;20.55;15.73;;;;;;;9.40;76.89;94374.66;5111005;28;20435;-43
2021/10/19 01:13:42;;;;;;;24.15;17.00;;;;;;;9.31;77.19;94372.25;5111331;28;20477;-43
2021/10/19 01:16:10;;;;;;;20.17;16.23;;;;;;;9.35;77.05;94378.97;5110901;28;20085;-43
2021/10/19 01:18:37;;;;;;;22.45;17.48;;;;;;;9.29;76.55;94369.28;5110031;28;20039;-43
2021/10/19 01:21:03;;;;;;;22.10;16.52;;;;;;;9.33;76.53;94381.50;5110565;28;20577;-43
2021/10/19 01:23:29;;;;;;;23.55;17.40;;;;;;;9.25;76.44;94374.34;5111059;28;20023;-43
2021/10/19 01:25:54;;;;;;;20.40;16.25;;;;;;;9.14;76.22;94372.41;5111110;28;20054;-44
2021/10/19 01:28:20;;;;;;;23.35;16.83;;;;;;;9.14;76.04;94381.44;5110991;28;20485;-44
2021/10/19 01:30:47;;;;;;;23.75;15.80;;;;;;;9.04;75.38;94371.28;5106683;28;20588;-43
2021/10/19 01:33:14;;;;;;;21.10;16.33;;;;;;;8.95;75.84;94374.38;5100054;28;20042;-44
2021/10/19 01:35:44;;;;;;;22.58;15.35;;;;;;;8.72;76.23;94384.09;5105550;28;20030;-45
2021/10/19 01:38:13;;;;;;;22.63;17.83;;;;;;;8.73;77.90;94391.09;5110060;28;20027;-43
2021/10/19 01:40:40;;;;;;;26.63;16.83;;;;;;;8.68;77.21;94389.16;5110871;28;20047;-44
2021/10/19 01:43:20;;;;;;;24.40;16.60;;;;;;;8.20;77.04;94389.75;5110733;28;20035;-44
2021/10/19 01:45:53;;;;;;;24.40;17.63;;;;;;;8.14;77.95;94398.00;5110962;28;20092;-45
2021/10/19 01:48:19;;;;;;;27.75;16.90;;;;;;;8.15;77.82;94396.78;5110884;28;20096;-43
2021/10/19 01:50:45;;;;;;;23.48;16.52;;;;;;;8.19;77.78;94400.00;5110501;28;20053;-44
2021/10/19 01:53:11;;;;;;;26.73;17.92;;;;;;;8.26;76.16;94398.72;5110478;28;20019;-43
2021/10/19 01:55:38;;;;;;;25.98;18.17;;;;;;;8.24;76.29;94390.97;5110873;28;20035;-43
2021/10/19 01:58:04;;;;;;;24.20;17.58;;;;;;;8.17;76.27;94391.50;5109201;28;20486;-43
2021/10/19 02:00:30;;;;;;;20.83;15.45;;;;;;;8.13;76.38;94401.28;5110454;28;20024;-42
2021/10/19 02:02:55;;;;;;;22.17;16.13;;;;;;;7.90;76.27;94377.94;5110688;28;20023;-43
2021/10/19 02:05:21;;;;;;;25.65;17.10;;;;;;;8.01;76.02;94397.13;5110588;28;20103;-43
2021/10/19 02:07:46;;;;;;;22.45;16.52;;;;;;;7.94;75.87;94405.91;5110215;28;20019;-42
2021/10/19 02:10:13;;;;;;;21.42;15.80;;;;;;;7.68;75.99;94400.03;5106999;28;20027;-42
2021/10/19 02:12:39;;;;;;;27.38;14.88;;;;;;;7.70;75.53;94400.28;5110068;28;20517;-42
2021/10/19 02:15:06;;;;;;;20.17;15.55;;;;;;;7.59;76.00;94403.81;5090353;28;20030;-42
2021/10/19 02:17:31;;;;;;;20.95;14.27;;;;;;;7.36;76.36;94405.88;5090221;28;20054;-43
2021/10/19 02:20:00;;;;;;;23.65;16.02;;;;;;;7.34;77.15;94397.41;5089948;28;20061;-43
2021/10/19 02:22:26;;;;;;;23.60;17.00;;;;;;;7.34;76.89;94405.66;5089968;28;20401;-43
2021/10/19 02:24:51;;;;;;;29.85;19.83;;;;;;;7.46;77.76;94401.63;5089871;28;20024;-44
2021/10/19 02:27:17;;;;;;;25.65;18.92;;;;;;;7.40;77.83;94400.16;5090131;28;20081;-43
2021/10/19 02:29:42;;;;;;;29.50;15.25;;;;;;;7.08;76.19;94410.72;5090021;28;20020;-45
2021/10/19 02:32:08;;;;;;;22.90;16.75;;;;;;;7.11;76.68;94412.47;5091198;28;20036;-43
2021/10/19 02:34:33;;;;;;;21.88;16.25;;;;;;;7.17;76.01;94415.94;5093885;28;20020;-45
2021/10/19 02:36:59;;;;;;;24.55;17.23;;;;;;;6.58;76.87;94397.06;5102687;28;20035;-44
2021/10/19 02:39:24;;;;;;;21.35;15.80;;;;;;;6.86;76.84;94413.53;5113894;28;20491;-44
2021/10/19 02:41:49;;;;;;;22.60;15.93;;;;;;;6.80;76.95;94413.50;5114155;28;20043;-45
2021/10/19 02:44:15;;;;;;;21.77;15.45;;;;;;;6.91;76.81;94412.03;5114117;28;20500;-44
2021/10/19 02:46:40;;;;;;;23.08;15.52;;;;;;;6.68;76.45;94416.78;5112788;28;20109;-45
2021/10/19 02:49:06;;;;;;;20.70;15.80;;;;;;;6.67;76.78;94418.03;5113941;28;20031;-44
2021/10/19 02:51:32;;;;;;;21.05;15.25;;;;;;;6.86;76.19;94413.53;5113797;28;20076;-43
2021/10/19 02:53:57;;;;;;;22.15;16.48;;;;;;;6.87;76.18;94412.25;5113802;28;20023;-43
2021/10/19 02:56:23;;;;;;;23.40;16.08;;;;;;;6.75;74.94;94422.53;5113829;28;20028;-45
2021/10/19 02:58:49;;;;;;;23.33;14.38;;;;;;;6.74;75.26;94423.00;5113514;28;20451;-44
2021/10/19 03:01:15;;;;;;;23.52;15.13;;;;;;;6.67;75.85;94426.25;5113824;28;20035;-43
2021/10/19 03:03:40;;;;;;;21.17;15.60;;;;;;;6.60;75.10;94432.25;5113257;27;20509;-43
2021/10/19 03:06:05;;;;;;;23.00;15.20;;;;;;;6.39;75.93;94426.25;5113385;28;20247;-43
2021/10/19 03:08:31;;;;;;;22.45;16.45;;;;;;;6.37;75.20;94417.75;5113204;28;20020;-44
2021/10/19 03:10:57;;;;;;;21.85;15.38;;;;;;;6.40;75.28;94429.75;5113322;28;20107;-43
2021/10/19 03:13:24;;;;;;;22.08;16.65;;;;;;;6.42;75.57;94427.25;5113232;28;20024;-43
2021/10/19 03:15:50;;;;;;;25.65;17.27;;;;;;;6.40;76.07;94440.72;5113428;28;20047;-43
2021/10/19 03:18:16;;;;;;;28.33;16.90;;;;;;;6.24;76.17;94439.44;5113444;28;20584;-43
2021/10/19 03:20:41;;;;;;;25.42;17.92;;;;;;;6.21;75.54;94431.47;5113384;28;20020;-44
2021/10/19 03:23:06;;;;;;;27.00;16.65;;;;;;;6.28;75.64;94441.97;5113325;28;20020;-44
2021/10/19 03:25:32;;;;;;;27.35;17.88;;;;;;;6.28;75.90;94439.22;5113294;28;20420;-44
2021/10/19 03:27:57;;;;;;;25.25;18.63;;;;;;;6.08;75.69;94438.19;5112895;28;20035;-44
2021/10/19 03:30:23;;;;;;;40.28;23.92;;;;;;;6.13;75.34;94440.19;5112778;28;20042;-44
2021/10/19 03:32:49;;;;;;;28.73;17.30;;;;;;;6.11;75.09;94441.91;5113186;28;20027;-44
2021/10/19 03:35:14;;;;;;;28.58;19.02;;;;;;;6.07;75.06;94446.91;5113115;28;20478;-43
2021/10/19 03:37:40;;;;;;;25.40;17.30;;;;;;;6.04;74.92;94443.16;5108524;28;20023;-44
2021/10/19 03:40:06;;;;;;;23.83;15.90;;;;;;;6.07;75.51;94452.38;5111504;28;20043;-43
2021/10/19 03:42:32;;;;;;;23.88;13.25;;;;;;;6.00;74.29;94450.09;5112774;28;20035;-44
2021/10/19 03:44:57;;;;;;;20.52;14.02;;;;;;;5.74;73.61;94431.06;5112638;28;20028;-44
2021/10/19 03:47:23;;;;;;;24.02;16.67;;;;;;;5.69;74.12;94445.53;5112820;28;20024;-45
2021/10/19 03:49:48;;;;;;;28.13;15.77;;;;;;;5.73;74.63;94457.00;5112753;28;20027;-43
2021/10/19 03:52:14;;;;;;;27.00;17.27;;;;;;;5.67;74.69;94458.97;5112782;28;20471;-43
2021/10/19 03:54:39;;;;;;;25.45;15.68;;;;;;;5.66;74.94;94451.97;5112730;28;20019;-44
2021/10/19 03:57:05;;;;;;;25.15;15.77;;;;;;;5.63;74.50;94463.19;5112792;28;20045;-43
2021/10/19 03:59:31;;;;;;;30.35;19.48;;;;;;;5.55;74.89;94454.66;5112236;28;20042;-43
2021/10/19 04:01:57;;;;;;;47.70;29.02;;;;;;;5.56;74.74;94456.19;5111962;28;20019;-43
2021/10/19 04:04:23;;;;;;;57.00;32.08;;;;;;;5.57;74.47;94457.66;5111752;28;20019;-43
2021/10/19 04:06:48;;;;;;;42.28;22.63;;;;;;;5.47;74.85;94461.88;5112241;28;20051;-43
2021/10/19 04:09:14;;;;;;;33.85;23.27;;;;;;;5.58;74.66;94461.91;5112025;28;20083;-42
2021/10/19 04:11:39;;;;;;;45.25;25.58;;;;;;;5.49;74.81;94469.56;5112049;28;20032;-42
2021/10/19 04:14:05;;;;;;;49.88;29.75;;;;;;;5.44;74.55;94468.31;5112365;28;20039;-43
2021/10/19 04:16:30;;;;;;;31.98;22.38;;;;;;;5.32;74.24;94461.28;5112234;27;20038;-43
2021/10/19 04:18:56;;;;;;;34.28;21.83;;;;;;;5.33;74.75;94468.25;5112044;28;20054;-43
2021/10/19 04:21:21;;;;;;;27.02;18.05;;;;;;;5.37;74.49;94474.28;5112123;28;20051;-43
2021/10/19 04:23:47;;;;;;;25.98;17.02;;;;;;;5.27;74.06;94473.72;5112151;28;20543;-45
2021/10/19 04:26:13;;;;;;;34.28;20.30;;;;;;;5.15;74.00;94474.13;5111611;28;20050;-44
2021/10/19 04:28:40;;;;;;;25.60;17.70;;;;;;;5.13;74.23;94484.84;5111705;28;20023;-46
2021/10/19 04:31:06;;;;;;;31.33;20.55;;;;;;;5.04;74.64;94472.09;5111809;28;20091;-45
2021/10/19 04:33:31;;;;;;;28.77;19.75;;;;;;;5.01;73.95;94484.00;5111974;28;20031;-43
2021/10/19 04:35:57;;;;;;;29.08;19.75;;;;;;;4.93;74.02;94485.69;5111367;28;20015;-44
2021/10/19 04:38:22;;;;;;;37.00;20.88;;;;;;;4.91;75.04;94488.16;5108270;28;20496;-44
2021/10/19 04:40:48;;;;;;;43.17;23.83;;;;;;;4.82;74.41;94490.31;5111539;28;20015;-44
2021/10/19 04:43:13;;;;;;;36.72;22.85;;;;;;;4.86;74.50;94496.31;5111482;28;20024;-45
2021/10/19 04:45:38;;;;;;;33.60;24.08;;;;;;;4.86;74.60;94490.84;5111427;28;20023;-44
2021/10/19 04:48:04;;;;;;;35.63;23.13;;;;;;;4.75;75.39;94486.03;5111721;28;20034;-44
2021/10/19 04:50:30;;;;;;;41.00;27.30;;;;;;;4.81;75.07;94486.09;5111563;28;20060;-44
2021/10/19 04:52:55;;;;;;;46.78;31.02;;;;;;;4.86;75.84;94488.88;5111308;28;20512;-44
2021/10/19 04:55:21;;;;;;;40.80;28.02;;;;;;;4.87;76.38;94489.63;5110812;27;20085;-43
2021/10/19 04:57:47;;;;;;;50.08;33.38;;;;;;;4.84;76.28;94496.06;5111627;28;20159;-42
2021/10/19 05:00:12;;;;;;;46.47;26.48;;;;;;;4.82;75.94;94480.13;5111443;28;20454;-44
2021/10/19 05:02:48;;;;;;;108.25;42.63;;;;;;;4.96;78.20;94508.59;5111427;28;20055;-43
2021/10/19 05:05:15;;;;;;;119.97;40.78;;;;;;;4.96;78.61;94506.59;5111028;28;20106;-43
2021/10/19 05:07:40;;;;;;;89.10;34.80;;;;;;;5.02;79.14;94518.34;5111048;28;20024;-45
2021/10/19 05:10:06;;;;;;;81.55;26.10;;;;;;;5.27;79.05;94528.47;5110951;28;20034;-46
2021/10/19 05:12:31;;;;;;;96.97;26.98;;;;;;;5.34;79.31;94522.53;5111156;28;20024;-44
2021/10/19 05:14:57;;;;;;;174.90;22.05;;;;;;;5.09;78.17;94506.22;5110102;28;20022;-45
2021/10/19 05:17:23;;;;;;;184.45;22.95;;;;;;;5.13;78.21;94517.69;5111054;28;20022;-45
2021/10/19 05:19:49;;;;;;;129.57;22.42;;;;;;;5.27;79.11;94533.94;5110969;28;20023;-44
2021/10/19 05:22:14;;;;;;;105.88;23.85;;;;;;;5.05;79.01;94538.50;5111136;28;20030;-44
2021/10/19 05:24:39;;;;;;;50.85;20.67;;;;;;;5.15;79.71;94539.84;5111141;28;20454;-44
2021/10/19 05:27:05;;;;;;;31.00;19.63;;;;;;;5.29;79.14;94544.41;5111187;28;20071;-45
2021/10/19 05:29:31;;;;;;;59.13;19.15;;;;;;;5.34;78.17;94549.16;5110626;28;20716;-45
2021/10/19 05:31:57;;;;;;;42.95;21.30;;;;;;;5.48;78.73;94550.25;5110808;28;20048;-44
2021/10/19 05:34:24;;;;;;;50.80;28.25;;;;;;;5.57;78.35;94559.03;5111022;28;20140;-43
2021/10/19 05:36:49;;;;;;;52.35;29.85;;;;;;;5.62;79.06;94560.28;5110281;28;20027;-43
2021/10/19 05:39:15;;;;;;;46.70;28.45;;;;;;;5.70;78.81;94562.09;5110687;28;20048;-45
2021/10/19 05:41:42;;;;;;;66.63;37.85;;;;;;;5.74;78.89;94559.84;5110907;28;20111;-43
2021/10/19 05:44:07;;;;;;;60.28;24.17;;;;;;;5.91;78.86;94568.94;5110767;28;20023;-43
2021/10/19 05:46:33;;;;;;;44.47;24.08;;;;;;;5.93;78.87;94558.22;5108116;28;20030;-43
2021/10/19 05:48:58;;;;;;;59.03;24.33;;;;;;;6.15;79.09;94570.56;5108652;28;20047;-45
2021/10/19 05:51:24;;;;;;;90.63;44.42;;;;;;;6.25;79.12;94572.59;5108236;28;20019;-43
2021/10/19 05:53:49;;;;;;;93.28;20.60;;;;;;;6.20;78.82;94565.06;5101649;28;20028;-44
2021/10/19 05:56:15;;;;;;;63.92;22.45;;;;;;;6.29;78.90;94575.84;5097241;28;20032;-43
2021/10/19 05:58:40;;;;;;;158.93;23.88;;;;;;;6.32;78.68;94568.63;5105091;28;20051;-42
2021/10/19 06:01:06;;;;;;;136.25;21.45;;;;;;;6.44;79.49;94573.63;5108431;28;20062;-42
2021/10/19 06:03:31;;;;;;;88.75;25.42;;;;;;;6.49;79.25;94577.63;5108374;28;20030;-42
2021/10/19 06:05:56;;;;;;;126.43;26.67;;;;;;;6.56;79.18;94577.16;5109378;28;20081;-43
2021/10/19 06:08:22;;;;;;;102.32;25.38;;;;;;;6.64;78.85;94586.41;5112302;28;20039;-42
2021/10/19 06:10:49;;;;;;;109.70;23.20;;;;;;;6.59;78.78;94592.63;5112250;28;20019;-42
2021/10/19 06:13:14;;;;;;;78.55;19.65;;;;;;;6.65;79.00;94594.13;5112534;28;20038;-42
2021/10/19 06:15:41;;;;;;;97.57;24.42;;;;;;;6.71;78.61;94596.91;5112190;28;20027;-44
2021/10/19 06:18:07;;;;;;;48.80;24.08;;;;;;;6.81;79.06;94604.41;5112321;28;20111;-43
2021/10/19 06:20:32;;;;;;;38.47;22.25;;;;;;;6.91;78.90;94599.41;5112140;27;20529;-45
2021/10/19 06:22:58;;;;;;;49.90;22.42;;;;;;;6.98;78.82;94598.19;5111937;28;20042;-43
2021/10/19 06:25:23;;;;;;;62.15;19.98;;;;;;;7.03;77.77;94600.19;5112208;28;20504;-45
2021/10/19 06:27:49;;;;;;;70.68;21.70;;;;;;;6.91;76.97;94593.19;5112380;28;20032;-45
2021/10/19 06:30:14;;;;;;;91.32;25.13;;;;;;;6.92;78.26;94592.69;5111604;28;20490;-43
2021/10/19 06:32:40;;;;;;;36.75;21.05;;;;;;;7.09;78.32;94592.69;5091746;28;20032;-43
2021/10/19 06:35:08;;;;;;;65.35;22.30;;;;;;;7.12;77.70;94597.97;5091267;28;20028;-43
2021/10/19 06:37:34;;;;;;;97.97;22.70;;;;;;;7.11;77.72;94590.97;5101481;28;20622;-43
2021/10/19 06:39:59;;;;;;;44.70;19.80;;;;;;;7.27;78.23;94605.97;5111721;28;20046;-44
2021/10/19 06:42:25;;;;;;;56.20;20.10;;;;;;;7.31;76.85;94600.97;5111631;28;20820;-44
2021/10/19 06:44:50;;;;;;;39.35;19.45;;;;;;;7.43;77.57;94605.94;5111791;28;20031;-43
2021/10/19 06:47:15;;;;;;;40.97;21.77;;;;;;;7.67;77.39;94608.16;5110094;28;20031;-43
2021/10/19 06:49:43;;;;;;;32.85;21.63;;;;;;;7.90;75.91;94609.66;5111088;28;20035;-42
2021/10/19 06:52:08;;;;;;;33.38;22.67;;;;;;;8.05;75.72;94609.34;5111747;28;20045;-44
2021/10/19 06:54:34;;;;;;;25.27;16.63;;;;;;;8.08;75.29;94613.84;5110535;28;20484;-45
2021/10/19 06:56:59;;;;;;;29.35;18.83;;;;;;;8.29;74.40;94612.31;5111548;28;20477;-44
2021/10/19 06:59:25;;;;;;;29.23;20.27;;;;;;;8.59;74.97;94607.69;5110997;28;20062;-42
2021/10/19 07:01:50;;;;;;;29.13;20.90;;;;;;;8.88;73.39;94618.03;5111180;28;20024;-43
2021/10/19 07:04:15;;;;;;;22.10;15.85;;;;;;;9.28;71.34;94613.03;5111606;28;20015;-42
2021/10/19 07:06:41;;;;;;;23.17;16.13;;;;;;;9.61;70.33;94613.53;5111084;28;20023;-42
2021/10/19 07:09:06;;;;;;;27.70;16.85;;;;;;;9.93;69.18;94610.97;5096511;28;20020;-43
2021/10/19 07:11:33;;;;;;;19.25;14.32;;;;;;;10.51;67.50;94617.63;5090328;28;20031;-43
2021/10/19 07:13:58;;;;;;;19.00;14.52;;;;;;;11.35;63.59;94618.00;5090450;28;20103;-43
2021/10/19 07:16:24;;;;;;;21.85;13.75;;;;;;;11.93;61.74;94620.84;5108237;28;20114;-43
2021/10/19 07:18:49;;;;;;;17.33;13.95;;;;;;;12.76;60.11;94618.53;5110428;27;20035;-43
2021/10/19 07:21:15;;;;;;;17.15;12.05;;;;;;;13.78;56.80;94614.53;5110774;28;20531;-43
2021/10/19 07:23:41;;;;;;;18.05;11.27;;;;;;;14.40;54.10;94620.78;5110520;28;20027;-45
2021/10/19 07:26:06;;;;;;;13.50;10.82;;;;;;;15.00;52.20;94614.06;5101642;28;20081;-43
2021/10/19 07:28:32;;;;;;;15.32;11.95;;;;;;;14.93;50.81;94568.25;5094765;28;20037;-44
2021/10/19 07:30:57;;;;;;;13.27;10.85;;;;;;;16.05;46.79;94615.63;5103083;28;20123;-45
2021/10/19 07:33:23;;;;;;;14.27;11.20;;;;;;;16.65;45.25;94612.81;5090606;28;20020;-45
2021/10/19 07:35:48;;;;;;;15.40;11.68;;;;;;;16.29;45.09;94609.47;5090140;28;20111;-45
2021/10/19 07:38:16;;;;;;;13.25;11.48;;;;;;;15.47;47.14;94616.47;5109411;28;20027;-45
2021/10/19 07:40:41;;;;;;;14.50;12.10;;;;;;;16.07;47.98;94585.19;5110301;28;20026;-46
2021/10/19 07:43:07;;;;;;;14.38;12.07;;;;;;;16.78;45.30;94611.88;5110635;27;20031;-44
2021/10/19 07:45:34;;;;;;;13.27;11.68;;;;;;;16.95;44.72;94612.00;5109797;28;20027;-44
2021/10/19 07:48:01;;;;;;;14.50;11.65;;;;;;;17.40;43.37;94586.69;5110063;28;20512;-45
2021/10/19 07:50:29;;;;;;;14.52;11.05;;;;;;;18.51;40.62;94602.50;5110028;28;20032;-44
2021/10/19 07:52:59;;;;;;;15.35;10.43;;;;;;;18.98;39.17;94603.50;5110121;28;20028;-45
2021/10/19 07:55:26;;;;;;;14.82;11.57;;;;;;;18.80;39.90;94602.75;5110432;28;20428;-46
2021/10/19 07:57:52;;;;;;;12.55;11.25;;;;;;;18.80;41.33;94608.38;5110392;28;20023;-45
2021/10/19 08:00:26;;;;;;;13.40;11.35;;;;;;;19.17;40.71;94589.66;5110371;28;20031;-44
2021/10/19 08:02:53;;;;;;;12.55;10.90;;;;;;;19.26;40.89;94600.94;5110262;28;20050;-44
2021/10/19 08:05:19;;;;;;;11.80;10.18;;;;;;;20.66;36.02;94598.53;5110011;28;20031;-45
2021/10/19 08:07:46;;;;;;;14.65;11.90;;;;;;;20.85;37.21;94601.38;5110038;28;20031;-44
2021/10/19 08:10:15;;;;;;;11.30;9.85;;;;;;;21.26;33.90;94603.03;5109703;28;20028;-47
2021/10/19 08:12:41;;;;;;;12.50;9.75;;;;;;;21.30;34.48;94602.59;5109967;28;20027;-45
2021/10/19 08:15:07;;;;;;;14.82;9.70;;;;;;;21.90;33.99;94601.31;5109925;28;20042;-44
2021/10/19 08:17:33;;;;;;;14.20;10.77;;;;;;;21.66;35.10;94603.13;5100514;28;20492;-44
2021/10/19 08:19:59;;;;;;;10.65;9.55;;;;;;;21.90;34.32;94598.50;5109959;28;20106;-45
2021/10/19 08:22:27;;;;;;;11.70;10.40;;;;;;;22.83;32.97;94593.66;5109812;28;20028;-44
2021/10/19 08:24:53;;;;;;;12.70;11.10;;;;;;;22.18;33.37;94592.06;5109688;28;20032;-44
2021/10/19 08:27:18;;;;;;;11.23;10.05;;;;;;;21.72;32.93;94600.03;5109843;28;20069;-45
2021/10/19 08:29:44;;;;;;;12.60;11.13;;;;;;;21.13;34.44;94595.81;5108641;28;20047;-45
2021/10/19 08:32:09;;;;;;;12.55;9.88;;;;;;;21.69;33.58;94595.59;5103623;28;20478;-44
2021/10/19 08:34:35;;;;;;;11.05;9.02;;;;;;;21.81;33.23;94599.25;5095328;28;20466;-44
2021/10/19 08:37:00;;;;;;;12.27;10.05;;;;;;;20.95;36.25;94599.31;5099213;28;20416;-44
2021/10/19 08:39:25;;;;;;;11.05;9.18;;;;;;;20.89;35.20;94590.44;5102277;28;20515;-44
2021/10/19 08:41:51;;;;;;;14.52;11.45;;;;;;;20.94;35.46;94598.56;5097694;28;20028;-42
2021/10/19 08:44:17;;;;;;;18.40;10.20;;;;;;;21.44;34.64;94598.00;5094808;28;20492;-43
2021/10/19 08:46:42;;;;;;;12.40;9.75;;;;;;;21.81;34.36;94571.13;5108105;28;20024;-42
2021/10/19 08:49:08;;;;;;;17.77;9.70;;;;;;;23.22;32.27;94583.56;5109489;28;20023;-42
2021/10/19 08:51:35;;;;;;;14.32;12.02;;;;;;;23.57;31.18;94595.00;5105074;28;20485;-44
2021/10/19 08:54:06;;;;;;;9.73;8.20;;;;;;;22.77;31.60;94601.69;5090284;28;20028;-45
2021/10/19 08:56:32;;;;;;;9.18;8.32;;;;;;;21.30;33.66;94603.34;5090924;28;20111;-44
2021/10/19 08:58:59;;;;;;;10.07;8.85;;;;;;;20.10;34.28;94600.53;5091023;28;20031;-44
2021/10/19 09:01:31;;;;;;;11.88;8.73;;;;;;;19.83;38.29;94597.78;5091080;28;20024;-47
2021/10/19 09:03:57;;;;;;;11.07;8.98;;;;;;;21.06;35.79;94598.75;5091171;28;20418;-44
2021/10/19 09:06:33;;;;;;;12.23;9.50;;;;;;;22.39;32.57;94586.47;5090680;28;20020;-43
2021/10/19 09:09:13;;;;;;;9.20;8.10;;;;;;;23.05;29.24;94578.22;5090972;28;20468;-45
2021/10/19 09:11:48;;;;;;;8.85;7.88;;;;;;;22.77;30.24;94579.16;5091115;28;20420;-46
2021/10/19 09:14:15;;;;;;;12.00;8.73;;;;;;;23.10;31.77;94574.34;5091052;28;20412;-42
2021/10/19 09:16:41;;;;;;;7.88;7.03;;;;;;;24.02;29.31;94571.81;5089776;28;20035;-44
2021/10/19 09:19:08;;;;;;;11.45;6.65;;;;;;;23.57;28.53;94575.28;5090600;28;20028;-45
2021/10/19 09:21:34;;;;;;;8.68;7.55;;;;;;;22.79;30.49;94579.31;5090886;28;20089;-44
2021/10/19 09:24:26;;;;;;;9.32;7.13;;;;;;;23.57;29.52;94575.28;5090863;28;20481;-43
2021/10/19 09:26:54;;;;;;;10.00;6.68;;;;;;;24.37;28.47;94562.66;5090494;28;20077;-43
2021/10/19 09:29:20;;;;;;;8.32;7.10;;;;;;;24.61;27.38;94550.00;5090783;28;20091;-44
2021/10/19 09:31:45;;;;;;;8.43;7.53;;;;;;;24.84;28.78;94569.75;5090389;28;20111;-43
2021/10/19 09:34:13;;;;;;;10.25;8.10;;;;;;;25.05;27.91;94566.78;5090451;28;20093;-45
2021/10/19 09:36:40;;;;;;;8.77;7.93;;;;;;;24.13;29.07;94564.75;5091613;28;20428;-42
2021/10/19 09:39:07;;;;;;;14.57;7.90;;;;;;;23.13;28.92;94553.41;5108197;28;20058;-43
2021/10/19 09:41:45;;;;;;;9.13;6.50;;;;;;;23.62;30.00;94558.03;5107075;28;20027;-42
2021/10/19 09:44:12;;;;;;;8.30;5.72;;;;;;;24.02;27.38;94560.53;5101479;28;20038;-42
2021/10/19 09:46:39;;;;;;;7.57;4.55;;;;;;;25.10;26.40;94550.78;5108655;28;20031;-43
2021/10/19 09:49:06;;;;;;;6.82;6.13;;;;;;;25.88;26.09;94552.38;5108640;28;20036;-42
2021/10/19 09:51:36;;;;;;;10.50;7.47;;;;;;;26.04;26.35;94547.63;5101785;28;20032;-42
2021/10/19 09:54:02;;;;;;;8.15;6.10;;;;;;;27.09;25.86;94561.63;5088378;28;20058;-42
2021/10/19 09:56:28;;;;;;;7.53;5.07;;;;;;;27.31;23.31;94545.00;5086860;28;20633;-42
2021/10/19 09:58:54;;;;;;;9.73;6.20;;;;;;;26.73;24.71;94557.69;5088145;28;20031;-43
2021/10/19 10:01:19;;;;;;;8.35;5.35;;;;;;;25.47;25.34;94552.25;5086369;28;20035;-43
2021/10/19 10:03:50;;;;;;;7.88;5.97;;;;;;;23.46;26.65;94551.34;5090784;28;20040;-44
2021/10/19 10:06:16;;;;;;;9.38;7.18;;;;;;;23.61;28.67;94542.44;5091412;28;20492;-42
2021/10/19 10:08:43;;;;;;;6.07;5.13;;;;;;;24.44;27.60;94541.91;5099065;28;20144;-42
2021/10/19 10:11:08;;;;;;;9.10;5.47;;;;;;;25.18;25.80;94548.41;5098320;28;20091;-43
2021/10/19 10:13:35;;;;;;;7.22;5.32;;;;;;;25.34;24.27;94538.75;5107575;28;20039;-42
2021/10/19 10:16:10;;;;;;;10.38;5.10;;;;;;;25.65;26.11;94540.47;5108595;28;20034;-42
2021/10/19 10:18:36;;;;;;;43.03;6.95;;;;;;;26.59;24.53;94534.28;5108819;28;20073;-43
2021/10/19 10:21:18;;;;;;;40.90;6.72;;;;;;;26.71;23.56;94532.06;5110231;28;20024;-45
2021/10/19 10:23:44;;;;;;;21.75;6.78;;;;;;;27.23;23.75;94531.13;5110039;28;20028;-42
2021/10/19 10:26:24;;;;;;;29.35;6.35;;;;;;;27.05;23.65;94530.97;5110152;28;20095;-42
2021/10/19 10:28:50;;;;;;;7.65;6.15;;;;;;;27.16;23.68;94542.84;5109336;28;20028;-43
2021/10/19 10:31:23;;;;;;;9.70;5.25;;;;;;;28.33;21.84;94524.34;5110364;28;20051;-43
2021/10/19 10:34:00;;;;;;;9.20;6.18;;;;;;;28.03;21.07;94527.91;5110194;28;20081;-43
2021/10/19 10:36:39;;;;;;;45.00;7.57;;;;;;;27.08;21.78;94528.97;5109662;28;20493;-42
2021/10/19 10:39:07;;;;;;;31.63;9.23;;;;;;;27.21;21.99;94530.31;5110098;28;20051;-41
2021/10/19 10:41:44;;;;;;;10.38;6.93;;;;;;;27.34;21.57;94521.03;5110382;28;20027;-42
2021/10/19 10:44:11;;;;;;;10.75;6.90;;;;;;;27.90;22.44;94520.91;5110105;28;20031;-43
2021/10/19 10:46:40;;;;;;;8.35;4.80;;;;;;;27.73;22.11;94518.69;5110361;28;20023;-43
2021/10/19 10:49:11;;;;;;;9.32;4.82;;;;;;;28.32;22.18;94522.13;5109930;28;20024;-44
2021/10/19 10:51:37;;;;;;;16.15;6.43;;;;;;;27.52;21.52;94514.16;5110051;28;20049;-42
2021/10/19 10:54:03;;;;;;;11.48;8.13;;;;;;;27.18;22.66;94512.44;5111939;28;20032;-42
2021/10/19 10:56:29;;;;;;;11.82;8.88;;;;;;;27.58;22.38;94516.53;5113937;28;20038;-43
2021/10/19 10:58:54;;;;;;;10.70;7.03;;;;;;;27.01;23.46;94502.44;5111556;28;20497;-43
2021/10/19 11:01:30;;;;;;;7.28;5.55;;;;;;;27.66;21.69;94511.97;5113794;28;20493;-44
2021/10/19 11:04:07;;;;;;;13.48;8.77;;;;;;;26.36;22.31;94513.94;5113442;28;20569;-42
2021/10/19 11:06:35;;;;;;;9.70;7.40;;;;;;;26.28;23.71;94506.47;5111815;28;20031;-44
2021/10/19 11:09:12;;;;;;;13.55;7.55;;;;;;;26.31;22.85;94519.34;5113455;28;20016;-43
2021/10/19 11:11:40;;;;;;;13.23;10.45;;;;;;;25.97;23.88;94514.69;5113709;28;20168;-43
2021/10/19 11:14:07;;;;;;;11.48;10.05;;;;;;;25.65;25.04;94504.44;5113543;28;20035;-43
2021/10/19 11:16:44;;;;;;;8.55;5.65;;;;;;;25.90;24.35;94503.69;5113580;28;20052;-42
2021/10/19 11:19:19;;;;;;;12.80;9.80;;;;;;;25.75;24.70;94507.09;5113231;28;20030;-43
2021/10/19 11:21:45;;;;;;;7.00;5.22;;;;;;;25.34;23.72;94504.81;5109361;28;20024;-42